Time;durP1;ratioP1;P1;durP2;ratioP2;P2;SDS_P1;SDS_P2;PMS_P1;PMS_P2;Temp;Humidity;BMP_temperature;BMP_pressure;BME280_temperature;BME280_humidity;BME280_pressure;Samples;Min_cycle;Max_cycle;Signal;HPM_P1;HPM_P2
2023/04/20 00:04:36;;;;;;;0.08;0.08;;;;;;;6.28;83.47;102292.06;10365894;28;20038;-79
2023/04/20 00:09:38;;;;;;;0.38;0.38;;;;;;;6.01;86.50;102291.97;10359305;28;20076;-79
2023/04/20 00:14:39;;;;;;;0.30;0.30;;;;;;;5.89;89.25;102275.78;10390400;28;20117;-79
2023/04/20 00:19:41;;;;;;;0.32;0.30;;;;;;;5.79;91.20;102268.25;10377943;28;20077;-78
2023/04/20 00:24:42;;;;;;;0.22;0.22;;;;;;;6.02;89.69;102252.81;10377810;28;20534;-79
2023/04/20 00:29:44;;;;;;;0.32;0.25;;;;;;;6.23;88.92;102249.03;10377455;28;20144;-79
2023/04/20 00:34:45;;;;;;;0.22;0.10;;;;;;;6.23;88.90;102242.22;10390732;28;20065;-79
2023/04/20 00:39:47;;;;;;;0.00;0.00;;;;;;;6.46;89.02;102230.00;10378351;28;20046;-80
2023/04/20 00:44:49;;;;;;;1.10;1.00;;;;;;;6.43;89.51;102214.47;10386270;28;20121;-79
2023/04/20 00:49:52;;;;;;;0.20;0.05;;;;;;;6.61;91.64;102210.50;10360821;28;20053;-79
2023/04/20 00:54:53;;;;;;;0.10;0.10;;;;;;;6.91;88.58;102205.53;10373267;28;20049;-78
2023/04/20 00:59:55;;;;;;;0.35;0.25;;;;;;;7.28;86.36;102197.53;10383251;28;20053;-78
2023/04/20 01:04:57;;;;;;;0.25;0.25;;;;;;;6.98;89.96;102187.19;10372300;28;20123;-79
2023/04/20 01:09:59;;;;;;;0.10;0.10;;;;;;;6.87;90.92;102175.41;10385839;28;20124;-79
2023/04/20 01:15:04;;;;;;;0.00;0.00;;;;;;;6.64;93.02;102163.72;10380213;28;20041;-79
2023/04/20 01:20:16;;;;;;;0.10;0.10;;;;;;;6.47;95.12;102160.09;10369094;28;20132;-79
2023/04/20 01:25:17;;;;;;;0.10;0.10;;;;;;;6.02;98.17;102152.16;10379363;28;20046;-79
2023/04/20 01:30:19;;;;;;;0.85;0.20;;;;;;;6.18;98.58;102136.13;10375183;28;20133;-78
2023/04/20 01:35:21;;;;;;;0.30;0.22;;;;;;;5.90;100.00;102139.44;10390133;28;20073;-78
2023/04/20 01:40:22;;;;;;;0.00;0.00;;;;;;;5.93;100.00;102131.06;10378607;28;20053;-78
2023/04/20 01:45:24;;;;;;;0.45;0.30;;;;;;;6.28;100.00;102112.88;10361635;28;20461;-79
2023/04/20 01:50:26;;;;;;;0.00;0.00;;;;;;;6.26;100.00;102106.78;10352915;28;20508;-79
2023/04/20 01:55:27;;;;;;;0.25;0.20;;;;;;;6.60;100.00;102106.31;10362049;28;20073;-79
2023/04/20 02:00:29;;;;;;;0.28;0.20;;;;;;;6.82;100.00;102097.34;10396284;28;20128;-78
2023/04/20 02:05:32;;;;;;;0.08;0.08;;;;;;;6.88;100.00;102086.59;10370671;28;20049;-80
2023/04/20 02:10:34;;;;;;;0.35;0.30;;;;;;;6.89;100.00;102084.13;10363619;28;20137;-79
2023/04/20 02:15:36;;;;;;;0.08;0.08;;;;;;;7.33;100.00;102077.31;10381443;28;20061;-80
2023/04/20 02:20:37;;;;;;;0.25;0.25;;;;;;;7.27;100.00;102082.94;10367419;28;20045;-79
2023/04/20 02:25:39;;;;;;;0.52;0.52;;;;;;;7.40;100.00;102063.19;10366787;28;20053;-79
2023/04/20 02:30:40;;;;;;;1.58;0.47;;;;;;;7.45;100.00;102061.75;10383435;28;20065;-79
2023/04/20 02:35:45;;;;;;;0.68;0.52;;;;;;;7.32;100.00;102054.16;10391249;28;20100;-78
2023/04/20 02:40:47;;;;;;;3.63;1.75;;;;;;;7.38;100.00;102039.13;10382151;28;20409;-79
2023/04/20 02:45:49;;;;;;;0.43;0.30;;;;;;;7.32;100.00;102049.03;10362896;28;20104;-79
2023/04/20 02:50:56;;;;;;;0.73;0.28;;;;;;;7.36;100.00;102036.47;10339371;28;20579;-78
2023/04/20 02:55:59;;;;;;;0.13;0.10;;;;;;;7.42;100.00;102030.78;10360362;28;20602;-78
2023/04/20 03:01:18;;;;;;;0.25;0.25;;;;;;;7.74;100.00;102019.78;10377412;28;20654;-78
2023/04/20 03:06:22;;;;;;;0.10;0.10;;;;;;;7.76;100.00;102022.44;10376427;28;20050;-78
2023/04/20 03:11:28;;;;;;;0.10;0.10;;;;;;;7.99;100.00;102020.25;10365760;28;20132;-79
2023/04/20 03:16:30;;;;;;;0.30;0.30;;;;;;;8.15;100.00;102007.47;10376594;28;20072;-79
2023/04/20 03:21:32;;;;;;;0.05;0.05;;;;;;;8.39;100.00;102017.25;10376133;28;20099;-79
2023/04/20 03:26:35;;;;;;;0.00;0.00;;;;;;;8.48;100.00;102012.63;10362376;28;20050;-79
2023/04/20 03:31:59;;;;;;;0.10;0.08;;;;;;;8.44;100.00;102010.69;10379754;28;20049;-78
2023/04/20 03:37:01;;;;;;;0.30;0.30;;;;;;;8.59;100.00;102002.91;10374764;28;20046;-78
2023/04/20 03:42:02;;;;;;;0.00;0.00;;;;;;;8.50;100.00;102005.91;10373367;28;20034;-78
2023/04/20 03:47:04;;;;;;;7.13;0.68;;;;;;;8.51;100.00;101992.25;10375745;28;20045;-79
2023/04/20 03:52:06;;;;;;;0.80;0.35;;;;;;;8.43;100.00;101998.63;10347573;28;20045;-79
2023/04/20 03:57:07;;;;;;;0.28;0.10;;;;;;;8.55;100.00;101983.03;10388410;28;20158;-79
2023/04/20 04:02:12;;;;;;;0.10;0.10;;;;;;;8.46;100.00;101982.50;10389020;28;20080;-79
2023/04/20 04:07:16;;;;;;;0.20;0.20;;;;;;;8.43;100.00;101975.53;10390251;28;20041;-79
2023/04/20 04:12:18;;;;;;;0.68;0.40;;;;;;;8.62;100.00;101958.50;10389403;28;20472;-79
2023/04/20 04:17:22;;;;;;;0.20;0.20;;;;;;;8.70;100.00;101972.63;10371960;28;20042;-79
2023/04/20 04:22:24;;;;;;;0.05;0.05;;;;;;;8.60;100.00;101960.13;10361927;28;20111;-79
2023/04/20 04:27:46;;;;;;;0.30;0.10;;;;;;;8.33;100.00;101965.56;10373913;28;20042;-79
2023/04/20 04:32:49;;;;;;;0.17;0.15;;;;;;;8.39;100.00;101955.59;10366296;28;20076;-79
2023/04/20 04:37:52;;;;;;;0.43;0.30;;;;;;;8.45;100.00;101962.75;10373866;28;20053;-78
2023/04/20 04:42:55;;;;;;;0.82;0.40;;;;;;;8.47;100.00;101959.50;10366931;28;20045;-79
2023/04/20 04:47:57;;;;;;;0.08;0.03;;;;;;;8.42;100.00;101958.34;10367436;28;20048;-79
2023/04/20 04:52:59;;;;;;;0.25;0.25;;;;;;;8.27;100.00;101955.84;10367882;28;20112;-79
2023/04/20 04:58:01;;;;;;;0.10;0.10;;;;;;;8.49;100.00;101963.03;10389395;28;20087;-78
2023/04/20 05:03:03;;;;;;;0.10;0.10;;;;;;;8.35;100.00;101962.28;10366490;28;20133;-79
2023/04/20 05:08:04;;;;;;;0.95;0.85;;;;;;;8.51;100.00;101966.56;10367002;28;20579;-78
2023/04/20 05:13:06;;;;;;;0.55;0.40;;;;;;;8.44;100.00;101959.31;10370811;28;20069;-79
2023/04/20 05:18:07;;;;;;;0.00;0.00;;;;;;;8.35;100.00;101969.09;10356093;28;20053;-78
2023/04/20 05:23:09;;;;;;;0.25;0.25;;;;;;;8.33;100.00;101971.59;10386858;28;20065;-80
2023/04/20 05:28:10;;;;;;;0.10;0.10;;;;;;;8.46;100.00;101967.97;10364819;28;20512;-79
2023/04/20 05:33:13;;;;;;;0.15;0.15;;;;;;;8.43;100.00;101962.69;10384095;28;20049;-79
2023/04/20 05:38:14;;;;;;;0.00;0.00;;;;;;;8.63;100.00;101939.72;10372976;28;20053;-79
2023/04/20 05:43:18;;;;;;;0.57;0.22;;;;;;;8.42;100.00;101956.66;10386836;28;20760;-78
2023/04/20 05:48:19;;;;;;;0.65;0.55;;;;;;;8.44;100.00;101954.19;10373262;28;20041;-78
2023/04/20 05:53:21;;;;;;;0.15;0.13;;;;;;;8.28;100.00;101961.88;10368170;28;20062;-79
2023/04/20 05:58:22;;;;;;;0.50;0.50;;;;;;;8.61;100.00;101967.00;10387106;28;20068;-79
2023/04/20 06:03:24;;;;;;;0.00;0.00;;;;;;;8.53;100.00;101953.78;10373624;28;20708;-79
2023/04/20 06:08:26;;;;;;;0.10;0.10;;;;;;;8.73;100.00;101957.38;10398894;28;20050;-79
2023/04/20 06:13:27;;;;;;;0.57;0.57;;;;;;;8.70;100.00;101962.34;10384998;28;20121;-78
2023/04/20 06:18:29;;;;;;;0.10;0.10;;;;;;;8.73;100.00;101967.66;10381587;28;20073;-79
2023/04/20 06:23:30;;;;;;;0.98;0.57;;;;;;;8.43;100.00;101978.09;10396274;28;20049;-79
2023/04/20 06:28:32;;;;;;;0.13;0.10;;;;;;;8.67;100.00;101980.19;10388642;28;20065;-79
2023/04/20 06:33:33;;;;;;;0.10;0.10;;;;;;;8.75;100.00;101965.16;10391714;28;20060;-79
2023/04/20 06:38:35;;;;;;;0.00;0.00;;;;;;;8.67;100.00;101977.63;10329533;28;20054;-78
2023/04/20 06:43:36;;;;;;;0.10;0.10;;;;;;;8.51;100.00;101974.28;10349049;28;20551;-78
2023/04/20 06:48:38;;;;;;;0.00;0.00;;;;;;;8.73;100.00;101976.25;10348347;28;20469;-78
2023/04/20 06:53:39;;;;;;;0.35;0.30;;;;;;;8.55;100.00;101975.31;10359580;28;20877;-78
2023/04/20 06:58:41;;;;;;;0.43;0.38;;;;;;;8.47;100.00;101969.75;10321310;28;20678;-78
2023/04/20 07:03:42;;;;;;;0.15;0.15;;;;;;;8.69;100.00;101976.91;10365019;28;20060;-78
2023/04/20 07:08:44;;;;;;;0.35;0.30;;;;;;;8.87;100.00;101956.38;10371235;28;20763;-78
2023/04/20 07:13:46;;;;;;;1.10;0.43;;;;;;;9.03;100.00;101952.88;10334188;28;20047;-78
2023/04/20 07:18:47;;;;;;;0.30;0.20;;;;;;;8.80;100.00;101954.31;10372968;28;20080;-78
2023/04/20 07:23:49;;;;;;;1.98;0.35;;;;;;;9.12;100.00;101952.44;10370302;28;20069;-78
2023/04/20 07:28:51;;;;;;;0.20;0.20;;;;;;;9.23;100.00;101954.66;10375916;28;20137;-78
2023/04/20 07:33:52;;;;;;;0.25;0.20;;;;;;;9.15;100.00;101944.88;10386517;28;20473;-78
2023/04/20 07:38:54;;;;;;;0.10;0.10;;;;;;;8.96;100.00;101949.94;10369265;28;20120;-78
2023/04/20 07:43:55;;;;;;;0.20;0.20;;;;;;;9.16;100.00;101938.94;10376092;28;20074;-77
2023/04/20 07:48:57;;;;;;;0.70;0.70;;;;;;;8.98;100.00;101948.31;10383808;28;20085;-78
2023/04/20 07:53:59;;;;;;;0.00;0.00;;;;;;;8.71;100.00;101949.56;10372859;28;20124;-79
2023/04/20 07:59:00;;;;;;;0.22;0.22;;;;;;;9.43;100.00;101943.63;10356327;28;20066;-78
2023/04/20 08:04:02;;;;;;;0.00;0.00;;;;;;;9.31;100.00;101943.91;10349873;28;20119;-78
2023/04/20 08:09:04;;;;;;;0.55;0.20;;;;;;;8.98;100.00;101949.19;10351282;28;20564;-77
2023/04/20 08:14:05;;;;;;;0.25;0.25;;;;;;;8.84;100.00;101943.38;10338166;28;20046;-79
2023/04/20 08:19:10;;;;;;;0.00;0.00;;;;;;;9.59;100.00;101939.19;10351024;28;20042;-78
2023/04/20 08:24:12;;;;;;;0.28;0.28;;;;;;;9.52;100.00;101933.78;10365647;28;20492;-78
2023/04/20 08:29:14;;;;;;;0.10;0.10;;;;;;;9.51;100.00;101921.72;10374470;28;20052;-78
2023/04/20 08:34:16;;;;;;;0.10;0.10;;;;;;;9.05;100.00;101920.41;10387642;28;20054;-78
2023/04/20 08:39:20;;;;;;;0.00;0.00;;;;;;;8.89;100.00;101934.22;10375088;28;20135;-79
2023/04/20 08:44:23;;;;;;;0.77;0.47;;;;;;;9.34;100.00;101940.63;10370493;28;20054;-79
2023/04/20 08:49:27;;;;;;;1.30;0.50;;;;;;;9.09;100.00;101931.72;10375832;28;20136;-79
2023/04/20 08:54:28;;;;;;;0.65;0.40;;;;;;;9.40;100.00;101933.22;10355920;28;20137;-80
2023/04/20 08:59:30;;;;;;;1.02;0.80;;;;;;;9.69;100.00;101941.41;10366075;28;20159;-79
2023/04/20 09:04:32;;;;;;;0.40;0.28;;;;;;;8.94;100.00;101942.13;10377267;28;20485;-80
2023/04/20 09:09:33;;;;;;;0.00;0.00;;;;;;;9.40;100.00;101938.34;10356220;28;20034;-78
2023/04/20 09:14:42;;;;;;;0.77;0.60;;;;;;;9.49;100.00;101932.75;10357328;28;20125;-80
2023/04/20 09:19:51;;;;;;;0.57;0.20;;;;;;;9.57;100.00;101927.97;10355038;28;20042;-79
2023/04/20 09:24:52;;;;;;;0.28;0.28;;;;;;;9.60;100.00;101928.09;10355563;28;20041;-79
2023/04/20 09:30:02;;;;;;;0.25;0.25;;;;;;;9.91;100.00;101914.06;10368573;28;20045;-79
2023/04/20 09:35:06;;;;;;;0.00;0.00;;;;;;;9.99;100.00;101930.72;10364151;28;20113;-79
2023/04/20 09:40:09;;;;;;;0.30;0.30;;;;;;;9.76;100.00;101922.84;10350933;28;20084;-79
2023/04/20 09:45:13;;;;;;;0.43;0.20;;;;;;;10.28;100.00;101923.41;10369305;28;20042;-80
2023/04/20 09:50:15;;;;;;;0.45;0.32;;;;;;;10.57;100.00;101921.22;10356377;28;20041;-79
2023/04/20 09:55:30;;;;;;;0.55;0.20;;;;;;;10.89;100.00;101908.81;10366612;28;20042;-79
2023/04/20 10:00:32;;;;;;;1.17;0.90;;;;;;;11.17;100.00;101894.44;10363655;28;20092;-79
2023/04/20 10:05:35;;;;;;;1.08;0.52;;;;;;;10.11;100.00;101892.66;10351435;28;20042;-78
2023/04/20 10:10:45;;;;;;;1.13;0.73;;;;;;;10.75;100.00;101880.78;10371964;28;20053;-79
2023/04/20 10:15:47;;;;;;;3.88;0.40;;;;;;;11.23;100.00;101874.03;10364848;28;20133;-80
2023/04/20 10:20:48;;;;;;;0.35;0.28;;;;;;;10.81;100.00;101874.09;10351720;28;20144;-80
2023/04/20 10:25:59;;;;;;;2.78;0.70;;;;;;;10.90;100.00;101875.34;10351664;28;20420;-79
2023/04/20 10:31:00;;;;;;;0.55;0.32;;;;;;;10.22;100.00;101871.63;10352764;28;20456;-80
2023/04/20 10:36:02;;;;;;;0.00;0.00;;;;;;;11.00;100.00;101871.44;10349228;28;20045;-80
2023/04/20 10:41:08;;;;;;;0.57;0.47;;;;;;;10.92;100.00;101862.50;10369115;28;20121;-80
2023/04/20 10:46:23;;;;;;;0.20;0.20;;;;;;;10.88;100.00;101860.63;10367833;28;20104;-79
2023/04/20 10:51:24;;;;;;;0.40;0.40;;;;;;;11.00;100.00;101861.13;10349516;28;20057;-79
2023/04/20 10:56:26;;;;;;;0.80;0.50;;;;;;;11.73;100.00;101851.81;10365934;28;20125;-81
2023/04/20 11:01:31;;;;;;;0.60;0.35;;;;;;;11.05;100.00;101844.16;10365553;28;20069;-80
2023/04/20 11:06:33;;;;;;;0.32;0.32;;;;;;;11.08;100.00;101836.50;10349669;28;20404;-81
2023/04/20 11:11:36;;;;;;;0.93;0.77;;;;;;;11.05;100.00;101833.84;10346648;28;20073;-81
2023/04/20 11:16:38;;;;;;;0.55;0.20;;;;;;;10.98;100.00;101836.09;10350689;28;20050;-80
2023/04/20 11:21:42;;;;;;;0.15;0.10;;;;;;;11.35;100.00;101835.81;10369391;28;20049;-80
2023/04/20 11:26:44;;;;;;;0.43;0.30;;;;;;;11.96;100.00;101830.25;10364739;28;20046;-80
2023/04/20 11:31:50;;;;;;;0.30;0.30;;;;;;;11.62;100.00;101831.59;10350708;28;20145;-81
2023/04/20 11:36:53;;;;;;;0.15;0.15;;;;;;;10.99;100.00;101823.25;10370414;28;20050;-78
2023/04/20 11:41:58;;;;;;;0.40;0.28;;;;;;;12.26;100.00;101807.19;10363129;28;20694;-79
2023/04/20 11:47:00;;;;;;;0.90;0.50;;;;;;;12.17;100.00;101802.59;10347275;28;20064;-79
2023/04/20 11:52:02;;;;;;;0.40;0.20;;;;;;;12.43;100.00;101799.13;10365868;28;20049;-79
2023/04/20 11:57:03;;;;;;;0.63;0.63;;;;;;;12.41;100.00;101808.53;10364103;28;20172;-79
2023/04/20 12:02:05;;;;;;;0.80;0.68;;;;;;;12.75;99.57;101792.38;10348155;28;20053;-81
2023/04/20 12:07:07;;;;;;;0.30;0.20;;;;;;;13.05;99.32;101808.81;10336424;28;20054;-81
2023/04/20 12:12:09;;;;;;;1.00;0.77;;;;;;;13.36;99.02;101807.13;10339908;28;20054;-79
2023/04/20 12:17:10;;;;;;;1.75;1.42;;;;;;;12.14;96.84;101801.63;10365627;28;20038;-78
2023/04/20 12:22:12;;;;;;;1.05;0.98;;;;;;;12.29;97.73;101799.56;10356708;28;20088;-78
2023/04/20 12:27:13;;;;;;;1.90;0.43;;;;;;;12.18;98.86;101803.47;10354673;28;20100;-79
2023/04/20 12:32:15;;;;;;;0.30;0.30;;;;;;;12.02;100.00;101792.63;10351810;28;20439;-79
2023/04/20 12:37:16;;;;;;;0.35;0.25;;;;;;;12.47;99.95;101795.81;10370541;28;20448;-79
2023/04/20 12:42:18;;;;;;;0.73;0.38;;;;;;;14.73;91.97;101777.03;10355782;28;20050;-79
2023/04/20 12:47:19;;;;;;;0.68;0.52;;;;;;;13.99;93.94;101785.59;10368956;28;20065;-79
2023/04/20 12:52:21;;;;;;;0.52;0.40;;;;;;;12.34;100.00;101794.53;10369554;28;20046;-78
2023/04/20 12:57:22;;;;;;;1.10;0.88;;;;;;;12.11;100.00;101796.34;10348190;28;20615;-78
2023/04/20 13:02:24;;;;;;;0.10;0.10;;;;;;;13.24;100.00;101798.16;10360852;28;20092;-77
2023/04/20 13:07:26;;;;;;;1.15;0.60;;;;;;;12.19;100.00;101784.56;10345080;28;20124;-78
2023/04/20 13:12:28;;;;;;;0.38;0.30;;;;;;;11.50;100.00;101790.78;10347848;28;20058;-78
2023/04/20 13:17:30;;;;;;;2.42;1.10;;;;;;;11.70;100.00;101786.28;10348094;28;20062;-80
2023/04/20 13:22:32;;;;;;;0.10;0.10;;;;;;;11.65;100.00;101788.75;10370762;28;20065;-79
2023/04/20 13:27:34;;;;;;;0.85;0.52;;;;;;;12.11;100.00;101791.16;10371347;28;20088;-78
2023/04/20 13:32:35;;;;;;;0.57;0.40;;;;;;;13.10;99.00;101778.78;10369827;28;20050;-78
2023/04/20 13:37:40;;;;;;;1.55;0.68;;;;;;;14.19;95.27;101762.75;10354474;28;20050;-78
2023/04/20 13:42:42;;;;;;;0.52;0.35;;;;;;;13.53;96.35;101768.81;10372229;28;20588;-78
2023/04/20 13:47:43;;;;;;;1.50;0.40;;;;;;;12.43;99.45;101763.84;10382715;28;20500;-79
2023/04/20 13:52:45;;;;;;;0.55;0.28;;;;;;;13.59;97.12;101766.38;10346120;28;20609;-78
2023/04/20 13:57:46;;;;;;;2.67;1.20;;;;;;;13.05;97.75;101764.84;10349408;28;20803;-78
2023/04/20 14:02:48;;;;;;;0.45;0.32;;;;;;;12.46;98.31;101755.28;10354185;28;20109;-78
2023/04/20 14:07:49;;;;;;;0.05;0.05;;;;;;;14.74;97.97;101741.59;10350024;28;20785;-78
2023/04/20 14:12:51;;;;;;;2.30;0.95;;;;;;;13.29;94.34;101752.59;10359477;28;20041;-78
2023/04/20 14:17:52;;;;;;;0.50;0.38;;;;;;;14.90;90.90;101737.59;10349913;28;20795;-78
2023/04/20 14:22:54;;;;;;;1.15;0.57;;;;;;;13.73;95.07;101746.06;10372011;28;20493;-79
2023/04/20 14:27:55;;;;;;;0.15;0.15;;;;;;;13.15;95.23;101747.03;10364708;28;20054;-78
2023/04/20 14:32:59;;;;;;;0.65;0.60;;;;;;;13.09;97.48;101740.78;10357874;28;20037;-78
2023/04/20 14:38:00;;;;;;;0.35;0.28;;;;;;;13.62;94.72;101731.09;10345523;28;20149;-79
2023/04/20 14:43:02;;;;;;;0.20;0.20;;;;;;;13.81;93.28;101726.41;10357834;28;20723;-78
2023/04/20 14:48:04;;;;;;;0.20;0.20;;;;;;;13.08;92.90;101739.94;10368768;28;20045;-78
2023/04/20 14:53:06;;;;;;;0.70;0.52;;;;;;;13.64;93.01;101724.25;10358101;28;20042;-78
2023/04/20 14:58:08;;;;;;;1.15;0.63;;;;;;;12.76;91.85;101731.22;10347111;28;20050;-79
2023/04/20 15:03:09;;;;;;;1.08;0.65;;;;;;;13.63;91.75;101725.09;10365650;28;20110;-78
2023/04/20 15:08:11;;;;;;;0.57;0.52;;;;;;;14.11;90.93;101712.47;10345986;28;20041;-79
2023/04/20 15:13:13;;;;;;;0.40;0.30;;;;;;;14.33;91.77;101713.84;10343994;28;20052;-78
2023/04/20 15:18:15;;;;;;;0.57;0.35;;;;;;;13.14;92.64;101713.38;10345344;28;20073;-78
2023/04/20 15:23:17;;;;;;;0.60;0.60;;;;;;;12.57;95.69;101720.31;10363680;28;20046;-78
2023/04/20 15:28:18;;;;;;;0.73;0.40;;;;;;;13.19;92.85;101711.78;10347089;28;20054;-78
2023/04/20 15:33:20;;;;;;;5.47;0.95;;;;;;;13.73;90.91;101699.44;10355720;28;20121;-78
2023/04/20 15:38:21;;;;;;;0.68;0.68;;;;;;;14.08;88.77;101697.69;10358277;28;20053;-78
2023/04/20 15:43:23;;;;;;;0.45;0.40;;;;;;;14.33;92.41;101694.84;10365407;28;20065;-79
2023/04/20 15:48:26;;;;;;;1.10;0.57;;;;;;;13.69;90.58;101695.00;10375540;28;20053;-78
2023/04/20 15:53:27;;;;;;;0.40;0.30;;;;;;;13.02;93.33;101700.97;10350025;28;20460;-78
2023/04/20 15:58:28;;;;;;;2.08;0.73;;;;;;;12.59;92.64;101703.16;10345641;28;20591;-78
2023/04/20 16:03:30;;;;;;;1.25;0.93;;;;;;;12.75;93.08;101708.78;10373275;28;20592;-79
2023/04/20 16:08:32;;;;;;;0.30;0.28;;;;;;;13.49;91.43;101690.19;10368667;28;20095;-77
2023/04/20 16:13:35;;;;;;;0.38;0.38;;;;;;;13.55;89.06;101685.16;10357663;28;20077;-79
2023/04/20 16:18:36;;;;;;;0.25;0.22;;;;;;;14.26;91.61;101666.16;10388988;28;20591;-79
2023/04/20 16:23:38;;;;;;;0.82;0.47;;;;;;;13.77;90.81;101675.34;10366726;28;20420;-79
2023/04/20 16:28:40;;;;;;;0.30;0.30;;;;;;;13.61;92.35;101679.28;10366306;28;20056;-78
2023/04/20 16:33:41;;;;;;;1.67;0.88;;;;;;;12.91;93.49;101690.31;10366789;28;20073;-77
2023/04/20 16:38:43;;;;;;;0.08;0.05;;;;;;;12.98;94.62;101686.16;10348212;28;20054;-77
2023/04/20 16:43:45;;;;;;;0.55;0.50;;;;;;;12.58;94.68;101690.19;10337461;28;20530;-77
2023/04/20 16:48:46;;;;;;;0.52;0.30;;;;;;;13.18;90.28;101686.72;10348949;28;20117;-76
2023/04/20 16:53:48;;;;;;;1.55;0.88;;;;;;;13.39;88.13;101685.59;10352442;28;20510;-77
2023/04/20 16:58:49;;;;;;;0.45;0.30;;;;;;;14.20;88.17;101678.13;10353440;28;20133;-77
2023/04/20 17:03:51;;;;;;;0.20;0.20;;;;;;;13.24;85.52;101679.13;10366003;28;20074;-77
2023/04/20 17:08:56;;;;;;;0.75;0.52;;;;;;;13.26;87.10;101686.94;10382968;28;21496;-78
2023/04/20 17:13:57;;;;;;;0.82;0.35;;;;;;;13.04;86.81;101695.81;10379102;28;20035;-79
2023/04/20 17:18:59;;;;;;;0.52;0.43;;;;;;;12.77;88.23;101686.44;10367460;28;20056;-77
2023/04/20 17:24:01;;;;;;;0.57;0.40;;;;;;;13.18;91.40;101699.66;10362212;28;20042;-78
2023/04/20 17:29:03;;;;;;;0.35;0.30;;;;;;;12.57;92.37;101707.38;10395497;28;20042;-78
2023/04/20 17:34:05;;;;;;;0.35;0.35;;;;;;;12.52;90.55;101709.81;10397184;28;20049;-78
2023/04/20 17:39:08;;;;;;;0.55;0.38;;;;;;;12.64;88.60;101717.09;10399122;28;20100;-78
2023/04/20 17:44:09;;;;;;;0.60;0.60;;;;;;;12.51;88.61;101726.16;10353682;28;20046;-78
2023/04/20 17:49:12;;;;;;;0.55;0.45;;;;;;;12.38;89.51;101732.69;10371435;28;20069;-77
2023/04/20 17:54:14;;;;;;;0.47;0.20;;;;;;;12.29;90.79;101729.78;10371304;28;20049;-79
2023/04/20 17:59:15;;;;;;;0.55;0.40;;;;;;;12.09;93.15;101741.19;10365638;28;20060;-78
2023/04/20 18:04:17;;;;;;;0.52;0.43;;;;;;;11.79;97.52;101747.03;10370603;28;20094;-78
2023/04/20 18:09:19;;;;;;;1.45;0.70;;;;;;;11.55;100.00;101748.78;10374852;28;20049;-77
2023/04/20 18:14:21;;;;;;;1.33;0.50;;;;;;;11.33;100.00;101752.31;10369617;28;20088;-77
2023/04/20 18:19:22;;;;;;;1.50;0.50;;;;;;;11.31;100.00;101759.13;10370710;28;20394;-77
2023/04/20 18:24:24;;;;;;;1.02;0.45;;;;;;;10.77;100.00;101770.84;10368154;28;20035;-78
2023/04/20 18:29:25;;;;;;;0.45;0.22;;;;;;;10.71;100.00;101769.75;10352702;28;20056;-78
2023/04/20 18:34:29;;;;;;;2.50;1.15;;;;;;;10.46;100.00;101785.09;10370409;28;20137;-78
2023/04/20 18:39:31;;;;;;;0.38;0.30;;;;;;;10.52;100.00;101793.91;10369344;28;20420;-77
2023/04/20 18:44:33;;;;;;;0.30;0.25;;;;;;;10.24;100.00;101788.47;10369409;28;20514;-77
2023/04/20 18:49:35;;;;;;;0.30;0.30;;;;;;;10.09;100.00;101806.72;10348215;28;20073;-77
2023/04/20 18:54:37;;;;;;;1.08;0.68;;;;;;;10.06;100.00;101804.03;10367823;28;20132;-77
2023/04/20 18:59:38;;;;;;;0.20;0.20;;;;;;;10.06;100.00;101787.69;10369239;28;20124;-78
2023/04/20 19:04:40;;;;;;;0.88;0.60;;;;;;;9.99;100.00;101791.72;10350117;28;20074;-77
2023/04/20 19:09:41;;;;;;;1.02;0.68;;;;;;;10.15;100.00;101794.13;10363218;28;20112;-77
2023/04/20 19:14:43;;;;;;;0.60;0.43;;;;;;;10.32;100.00;101791.34;10351335;28;20061;-77
2023/04/20 19:19:46;;;;;;;0.55;0.45;;;;;;;10.04;100.00;101790.22;10383739;28;20464;-77
2023/04/20 19:24:49;;;;;;;0.98;0.70;;;;;;;9.97;100.00;101793.34;10353820;28;20471;-77
2023/04/20 19:29:50;;;;;;;2.20;0.60;;;;;;;9.81;100.00;101790.09;10369070;28;20436;-78
2023/04/20 19:34:56;;;;;;;0.20;0.20;;;;;;;9.84;100.00;101782.53;10368889;28;20045;-78
2023/04/20 19:39:57;;;;;;;0.98;0.52;;;;;;;9.88;100.00;101785.22;10351104;28;20527;-78
2023/04/20 19:44:59;;;;;;;1.55;0.50;;;;;;;10.11;100.00;101787.06;10349838;28;20076;-78
2023/04/20 19:50:00;;;;;;;0.65;0.20;;;;;;;9.92;100.00;101789.69;10364115;28;20100;-77
2023/04/20 19:55:05;;;;;;;0.63;0.60;;;;;;;9.81;100.00;101786.66;10348877;28;20045;-78
2023/04/20 20:00:08;;;;;;;2.47;0.63;;;;;;;9.71;100.00;101785.38;10329088;28;20052;-78
2023/04/20 20:05:12;;;;;;;1.00;0.50;;;;;;;9.70;100.00;101786.19;10350576;28;20030;-78
2023/04/20 20:10:14;;;;;;;1.45;0.65;;;;;;;9.77;100.00;101795.03;10366926;28;20052;-78
2023/04/20 20:15:15;;;;;;;0.52;0.32;;;;;;;9.73;100.00;101786.31;10351473;28;20128;-78
2023/04/20 20:20:17;;;;;;;2.28;0.93;;;;;;;9.85;100.00;101773.09;10355003;28;20052;-79
2023/04/20 20:25:18;;;;;;;2.00;1.10;;;;;;;9.94;100.00;101757.19;10341721;28;20089;-78
2023/04/20 20:30:20;;;;;;;0.75;0.75;;;;;;;9.91;100.00;101754.47;10359108;28;20049;-78
2023/04/20 20:35:22;;;;;;;0.70;0.70;;;;;;;9.90;100.00;101744.97;10344185;28;20042;-77
2023/04/20 20:40:24;;;;;;;0.57;0.43;;;;;;;9.78;100.00;101751.38;10351562;28;20042;-77
2023/04/20 20:45:26;;;;;;;1.30;0.93;;;;;;;9.80;100.00;101734.28;10371412;28;20113;-77
2023/04/20 20:50:28;;;;;;;0.88;0.63;;;;;;;9.50;100.00;101737.31;10368980;28;20104;-78
2023/04/20 20:55:29;;;;;;;1.02;0.80;;;;;;;9.58;100.00;101731.63;10349122;28;20231;-77
2023/04/20 21:00:32;;;;;;;1.25;0.85;;;;;;;9.47;100.00;101724.31;10368007;28;20050;-78
2023/04/20 21:05:33;;;;;;;1.15;0.63;;;;;;;9.44;100.00;101728.47;10383667;28;20061;-78
2023/04/20 21:10:36;;;;;;;0.82;0.82;;;;;;;9.21;100.00;101726.63;10347907;28;20046;-77
2023/04/20 21:15:37;;;;;;;3.63;1.08;;;;;;;9.24;100.00;101710.44;10355041;28;20134;-77
2023/04/20 21:20:39;;;;;;;1.63;0.93;;;;;;;9.27;100.00;101718.31;10353061;28;20077;-77
2023/04/20 21:25:40;;;;;;;0.63;0.60;;;;;;;9.35;100.00;101722.09;10334529;28;20477;-77
2023/04/20 21:30:42;;;;;;;1.02;0.77;;;;;;;9.33;100.00;101705.72;10355003;28;20065;-78
2023/04/20 21:35:43;;;;;;;2.05;0.82;;;;;;;9.51;100.00;101705.63;10371823;28;20065;-78
2023/04/20 21:40:45;;;;;;;1.83;0.50;;;;;;;9.54;100.00;101712.59;10376597;28;20065;-77
2023/04/20 21:45:46;;;;;;;1.70;1.33;;;;;;;9.45;100.00;101718.22;10346103;28;20124;-78
2023/04/20 21:50:48;;;;;;;0.68;0.68;;;;;;;9.56;100.00;101717.81;10370403;28;20065;-77
2023/04/20 21:55:49;;;;;;;0.65;0.65;;;;;;;9.57;100.00;101709.31;10355224;28;20438;-77
2023/04/20 22:00:51;;;;;;;0.40;0.35;;;;;;;9.61;100.00;101716.31;10361208;28;20081;-77
2023/04/20 22:05:52;;;;;;;11.70;1.65;;;;;;;9.63;100.00;101730.13;10348556;28;20520;-76
2023/04/20 22:10:54;;;;;;;0.75;0.75;;;;;;;9.59;100.00;101729.13;10347718;28;20129;-77
2023/04/20 22:15:56;;;;;;;0.75;0.73;;;;;;;9.58;100.00;101723.91;10383793;28;20125;-77
2023/04/20 22:20:57;;;;;;;0.82;0.63;;;;;;;9.73;100.00;101709.13;10345096;28;20061;-77
2023/04/20 22:25:59;;;;;;;0.30;0.25;;;;;;;9.74;100.00;101704.88;10367959;28;20069;-77
2023/04/20 22:31:00;;;;;;;2.20;0.77;;;;;;;9.76;100.00;101680.94;10350861;28;20069;-77
2023/04/20 22:36:02;;;;;;;0.35;0.35;;;;;;;9.81;100.00;101670.84;10350133;28;20038;-79
2023/04/20 22:41:04;;;;;;;3.83;0.93;;;;;;;9.70;100.00;101662.69;10350449;28;20136;-78
2023/04/20 22:46:05;;;;;;;1.08;0.82;;;;;;;9.67;100.00;101665.13;10364717;28;20474;-79
2023/04/20 22:51:07;;;;;;;2.97;1.13;;;;;;;9.78;100.00;101643.31;10366791;28;20045;-79
2023/04/20 22:56:09;;;;;;;0.63;0.60;;;;;;;9.97;100.00;101638.88;10367421;28;20463;-76
2023/04/20 23:01:10;;;;;;;1.35;0.80;;;;;;;9.86;100.00;101648.75;10347837;28;20076;-79
2023/04/20 23:06:15;;;;;;;1.00;0.95;;;;;;;9.63;100.00;101648.69;10366296;28;20045;-78
2023/04/20 23:11:17;;;;;;;0.93;0.85;;;;;;;9.56;100.00;101656.09;10344118;28;20041;-76